Time;durP1;ratioP1;P1;durP2;ratioP2;P2;SDS_P1;SDS_P2;PMS_P1;PMS_P2;Temp;Humidity;BMP_temperature;BMP_pressure;BME280_temperature;BME280_humidity;BME280_pressure;Samples;Min_cycle;Max_cycle;Signal;HPM_P1;HPM_P2
2022/10/13 00:01:20;;;;;;;9.25;4.70;;;;;;;;;;4923822;29;20567;-87
2022/10/13 00:03:46;;;;;;;6.82;4.20;;;;;;;;;;4924654;29;20028;-87
2022/10/13 00:06:18;;;;;;;8.25;4.32;;;;;;;;;;4938641;29;20036;-87
2022/10/13 00:08:45;;;;;;;14.02;4.55;;;;;;;;;;4938973;29;20031;-87
2022/10/13 00:11:17;;;;;;;9.40;4.57;;;;;;;;;;4923320;29;20032;-87
2022/10/13 00:13:43;;;;;;;11.27;4.20;;;;;;;;;;4923614;29;20048;-86
2022/10/13 00:16:10;;;;;;;9.40;4.05;;;;;;;;;;4923536;29;20124;-87
2022/10/13 00:18:36;;;;;;;8.73;4.00;;;;;;;;;;4923968;29;20068;-87
2022/10/13 00:21:06;;;;;;;6.65;3.85;;;;;;;;;;4923578;29;20048;-87
2022/10/13 00:23:32;;;;;;;9.52;4.18;;;;;;;;;;4923634;29;20036;-87
2022/10/13 00:26:04;;;;;;;8.95;4.40;;;;;;;;;;4924166;29;20064;-86
2022/10/13 00:28:30;;;;;;;11.85;3.78;;;;;;;;;;4938739;29;20100;-86
2022/10/13 00:30:55;;;;;;;4.93;3.38;;;;;;;;;;4923686;29;20031;-86
2022/10/13 00:33:21;;;;;;;12.68;3.42;;;;;;;;;;4922149;29;20060;-87
2022/10/13 00:35:48;;;;;;;7.18;3.95;;;;;;;;;;4923651;29;20064;-86
2022/10/13 00:38:18;;;;;;;9.05;4.05;;;;;;;;;;4923407;29;20028;-87
2022/10/13 00:40:50;;;;;;;13.23;4.18;;;;;;;;;;4923812;29;20044;-87
2022/10/13 00:43:24;;;;;;;10.07;4.10;;;;;;;;;;4923509;29;20036;-86
2022/10/13 00:45:51;;;;;;;8.80;4.03;;;;;;;;;;4922661;29;20123;-87
2022/10/13 00:48:29;;;;;;;10.30;3.92;;;;;;;;;;4923193;29;20032;-86
2022/10/13 00:50:57;;;;;;;8.40;4.00;;;;;;;;;;4923358;29;20040;-86
2022/10/13 00:53:29;;;;;;;8.10;4.60;;;;;;;;;;4937585;29;20489;-87
2022/10/13 00:55:55;;;;;;;13.15;4.25;;;;;;;;;;4922895;29;20043;-86
2022/10/13 00:58:24;;;;;;;8.05;4.40;;;;;;;;;;4921178;29;20126;-86
2022/10/13 01:00:51;;;;;;;8.68;4.50;;;;;;;;;;4922561;29;20040;-87
2022/10/13 01:03:19;;;;;;;9.25;4.50;;;;;;;;;;4923001;29;20071;-87
2022/10/13 01:05:46;;;;;;;8.63;4.28;;;;;;;;;;4922353;29;20043;-86
2022/10/13 01:08:13;;;;;;;9.65;4.45;;;;;;;;;;4922749;29;20130;-86
2022/10/13 01:10:54;;;;;;;10.45;3.83;;;;;;;;;;4921427;29;20040;-86
2022/10/13 01:13:40;;;;;;;5.55;3.85;;;;;;;;;;4922316;29;20405;-87
2022/10/13 01:16:20;;;;;;;8.38;4.00;;;;;;;;;;4921115;29;20048;-86
2022/10/13 01:18:51;;;;;;;14.68;4.80;;;;;;;;;;4937097;29;20036;-87
2022/10/13 01:21:40;;;;;;;7.88;4.25;;;;;;;;;;4922589;29;20064;-86
2022/10/13 01:24:36;;;;;;;10.13;4.57;;;;;;;;;;4920624;29;20040;-86
2022/10/13 01:27:24;;;;;;;7.35;4.05;;;;;;;;;;4920981;29;20051;-87
2022/10/13 01:30:13;;;;;;;11.57;5.20;;;;;;;;;;4921907;29;20036;-86
2022/10/13 01:32:51;;;;;;;8.45;4.25;;;;;;;;;;4924652;29;20104;-86
2022/10/13 01:35:26;;;;;;;13.43;4.95;;;;;;;;;;4926285;29;20052;-86
2022/10/13 01:38:20;;;;;;;10.60;5.15;;;;;;;;;;4926235;29;20040;-87
2022/10/13 01:41:00;;;;;;;8.88;4.63;;;;;;;;;;4924591;29;20044;-87
2022/10/13 01:43:56;;;;;;;11.88;4.60;;;;;;;;;;4926887;29;20032;-87
2022/10/13 01:46:36;;;;;;;10.48;5.28;;;;;;;;;;4925947;29;20052;-86
2022/10/13 01:49:08;;;;;;;12.30;4.60;;;;;;;;;;4924502;29;20028;-86
2022/10/13 01:51:35;;;;;;;10.82;5.32;;;;;;;;;;4924402;29;20058;-86
2022/10/13 01:54:00;;;;;;;9.90;5.05;;;;;;;;;;4924571;29;20032;-86
2022/10/13 01:56:26;;;;;;;10.48;4.72;;;;;;;;;;4925354;29;20028;-86
2022/10/13 01:58:54;;;;;;;7.07;4.15;;;;;;;;;;4925638;29;20052;-87
2022/10/13 02:01:47;;;;;;;13.93;4.85;;;;;;;;;;4925713;29;20036;-86
2022/10/13 02:04:22;;;;;;;8.80;4.72;;;;;;;;;;4939635;29;20036;-86
2022/10/13 02:07:02;;;;;;;9.15;4.25;;;;;;;;;;4925485;29;20048;-86
2022/10/13 02:09:46;;;;;;;10.40;4.10;;;;;;;;;;4925492;29;20067;-86
2022/10/13 02:12:32;;;;;;;11.13;4.40;;;;;;;;;;4940269;29;20122;-86
2022/10/13 02:14:59;;;;;;;9.68;4.28;;;;;;;;;;4924649;29;20120;-86
2022/10/13 02:17:27;;;;;;;11.40;4.30;;;;;;;;;;4924037;29;20071;-86
2022/10/13 02:19:55;;;;;;;8.55;4.40;;;;;;;;;;4924745;29;20402;-86
2022/10/13 02:22:26;;;;;;;7.13;4.25;;;;;;;;;;4923711;29;20047;-86
2022/10/13 02:24:53;;;;;;;7.88;4.07;;;;;;;;;;4924959;29;20055;-87
2022/10/13 02:27:20;;;;;;;8.80;4.30;;;;;;;;;;4938941;29;20498;-86
2022/10/13 02:29:54;;;;;;;7.85;4.05;;;;;;;;;;4938629;29;20040;-86
2022/10/13 02:32:22;;;;;;;7.35;4.00;;;;;;;;;;4923292;29;20040;-86
2022/10/13 02:34:50;;;;;;;9.38;4.10;;;;;;;;;;4922904;29;20079;-87
2022/10/13 02:37:16;;;;;;;8.85;4.05;;;;;;;;;;4923202;29;20040;-86
2022/10/13 02:39:41;;;;;;;7.13;3.72;;;;;;;;;;4924371;29;20042;-86
2022/10/13 02:42:10;;;;;;;10.20;3.90;;;;;;;;;;4924250;29;20111;-86
2022/10/13 02:44:35;;;;;;;11.25;4.07;;;;;;;;;;4922812;29;20075;-87
2022/10/13 02:47:01;;;;;;;8.18;4.15;;;;;;;;;;4923508;29;20170;-86
2022/10/13 02:49:26;;;;;;;9.27;4.13;;;;;;;;;;4923906;29;20168;-86
2022/10/13 02:51:52;;;;;;;10.60;3.80;;;;;;;;;;4925058;29;20040;-86
2022/10/13 02:54:18;;;;;;;10.30;3.78;;;;;;;;;;4924125;29;20048;-85
2022/10/13 02:56:43;;;;;;;7.95;3.92;;;;;;;;;;4924457;29;20039;-86
2022/10/13 02:59:09;;;;;;;8.60;3.97;;;;;;;;;;4924813;29;20058;-86
2022/10/13 03:01:39;;;;;;;6.72;3.80;;;;;;;;;;4923986;29;20048;-86
2022/10/13 03:04:06;;;;;;;9.95;3.72;;;;;;;;;;4924018;29;20035;-86
2022/10/13 03:06:31;;;;;;;8.50;4.10;;;;;;;;;;4924548;29;20039;-86
2022/10/13 03:08:57;;;;;;;6.97;3.78;;;;;;;;;;4923740;29;20040;-86
2022/10/13 03:11:22;;;;;;;5.95;3.45;;;;;;;;;;4924199;29;20131;-86
2022/10/13 03:13:48;;;;;;;6.30;3.63;;;;;;;;;;4923113;29;20095;-86
2022/10/13 03:16:13;;;;;;;9.80;4.30;;;;;;;;;;4922701;29;20040;-86
2022/10/13 03:18:39;;;;;;;13.65;6.05;;;;;;;;;;4938689;29;20038;-85
2022/10/13 03:21:05;;;;;;;9.02;4.85;;;;;;;;;;4938806;29;20044;-86
2022/10/13 03:23:32;;;;;;;14.73;6.93;;;;;;;;;;4938978;29;20531;-86
2022/10/13 03:25:59;;;;;;;10.32;5.88;;;;;;;;;;4938135;29;20099;-86
2022/10/13 03:28:24;;;;;;;8.95;4.75;;;;;;;;;;4924110;29;20064;-86
2022/10/13 03:30:58;;;;;;;8.32;3.80;;;;;;;;;;4924159;29;20103;-85
2022/10/13 03:33:23;;;;;;;12.75;6.68;;;;;;;;;;4922377;29;20051;-86
2022/10/13 03:35:51;;;;;;;13.18;8.07;;;;;;;;;;4923593;29;20092;-86
2022/10/13 03:38:16;;;;;;;12.25;5.80;;;;;;;;;;4922167;29;20064;-86
2022/10/13 03:40:42;;;;;;;10.38;4.90;;;;;;;;;;4923209;29;20044;-86
2022/10/13 03:43:07;;;;;;;9.85;4.03;;;;;;;;;;4921617;29;20511;-86
2022/10/13 03:45:33;;;;;;;6.53;4.10;;;;;;;;;;4922979;29;20040;-86
2022/10/13 03:48:08;;;;;;;8.02;4.22;;;;;;;;;;4923645;29;20028;-87
2022/10/13 03:50:33;;;;;;;11.27;3.75;;;;;;;;;;4925636;29;20095;-89
2022/10/13 03:52:58;;;;;;;8.18;3.80;;;;;;;;;;4941351;29;20036;-88
2022/10/13 03:55:24;;;;;;;8.02;4.00;;;;;;;;;;4925822;29;20038;-88
2022/10/13 03:57:49;;;;;;;11.70;3.90;;;;;;;;;;4925901;29;20038;-88
2022/10/13 04:00:15;;;;;;;7.47;3.28;;;;;;;;;;4926918;29;20565;-88
2022/10/13 04:02:41;;;;;;;14.38;4.30;;;;;;;;;;4926498;29;20111;-88
2022/10/13 04:05:07;;;;;;;7.47;3.63;;;;;;;;;;4926901;29;20536;-87
2022/10/13 04:07:32;;;;;;;10.30;3.90;;;;;;;;;;4925429;29;20032;-88
2022/10/13 04:10:03;;;;;;;10.63;4.07;;;;;;;;;;4926595;29;20119;-89
2022/10/13 04:12:28;;;;;;;10.63;5.30;;;;;;;;;;4926554;29;20136;-89
2022/10/13 04:14:54;;;;;;;13.70;7.75;;;;;;;;;;4925143;29;20051;-88
2022/10/13 04:17:19;;;;;;;9.98;5.30;;;;;;;;;;4925737;29;20047;-89
2022/10/13 04:19:45;;;;;;;10.30;4.05;;;;;;;;;;4926654;29;20058;-87
2022/10/13 04:22:10;;;;;;;5.03;2.92;;;;;;;;;;4924672;29;20046;-88
2022/10/13 04:24:36;;;;;;;8.65;4.22;;;;;;;;;;4940770;29;20036;-88
2022/10/13 04:27:02;;;;;;;8.32;3.63;;;;;;;;;;4939831;29;20039;-88
2022/10/13 04:29:27;;;;;;;10.48;3.63;;;;;;;;;;4941033;29;20047;-88
2022/10/13 04:31:53;;;;;;;7.18;3.30;;;;;;;;;;4924383;29;20088;-88
2022/10/13 04:34:19;;;;;;;6.07;3.28;;;;;;;;;;4925216;29;20104;-88
2022/10/13 04:36:45;;;;;;;9.52;3.20;;;;;;;;;;4939987;29;20591;-88
2022/10/13 04:39:10;;;;;;;9.63;3.83;;;;;;;;;;4924430;29;20032;-89
2022/10/13 04:41:35;;;;;;;9.88;4.25;;;;;;;;;;4925846;29;20122;-88
2022/10/13 04:44:01;;;;;;;6.40;3.67;;;;;;;;;;4940073;29;20035;-88
2022/10/13 04:46:27;;;;;;;6.22;3.33;;;;;;;;;;4925758;29;20044;-88
2022/10/13 04:48:54;;;;;;;12.70;3.25;;;;;;;;;;4926066;29;20032;-88
2022/10/13 04:51:24;;;;;;;10.07;3.42;;;;;;;;;;4940752;29;20040;-88
2022/10/13 04:53:57;;;;;;;19.13;8.00;;;;;;;;;;4923110;29;20044;-88
2022/10/13 04:56:23;;;;;;;84.15;32.50;;;;;;;;;;4926513;29;20043;-89
2022/10/13 04:58:49;;;;;;;84.70;35.25;;;;;;;;;;4939986;29;20032;-88
2022/10/13 05:01:17;;;;;;;30.60;13.85;;;;;;;;;;4925304;29;20547;-87
2022/10/13 05:03:43;;;;;;;18.75;9.57;;;;;;;;;;4924130;29;20036;-89
2022/10/13 05:06:21;;;;;;;23.27;9.43;;;;;;;;;;4927462;29;20036;-88
2022/10/13 05:08:49;;;;;;;9.65;4.35;;;;;;;;;;4938866;29;20119;-87
2022/10/13 05:11:15;;;;;;;7.85;3.78;;;;;;;;;;4934711;29;20032;-87
2022/10/13 05:13:41;;;;;;;9.68;3.88;;;;;;;;;;4919771;29;20102;-87
2022/10/13 05:16:09;;;;;;;13.07;4.00;;;;;;;;;;4928764;29;20074;-88
2022/10/13 05:18:36;;;;;;;10.95;4.78;;;;;;;;;;4929110;29;20039;-88
2022/10/13 05:21:25;;;;;;;9.68;4.93;;;;;;;;;;4928509;29;20107;-88
2022/10/13 05:23:53;;;;;;;11.07;4.70;;;;;;;;;;4943730;29;20043;-88
2022/10/13 05:26:18;;;;;;;10.77;4.68;;;;;;;;;;4927971;29;20405;-87
2022/10/13 05:28:44;;;;;;;10.80;5.90;;;;;;;;;;4927879;29;20071;-88
2022/10/13 05:31:19;;;;;;;13.00;4.28;;;;;;;;;;4943897;29;20065;-88
2022/10/13 05:33:45;;;;;;;6.78;4.18;;;;;;;;;;4927561;29;20064;-88
2022/10/13 05:36:18;;;;;;;12.15;5.93;;;;;;;;;;4928345;29;20119;-88
2022/10/13 05:38:44;;;;;;;10.73;5.72;;;;;;;;;;4928313;29;20032;-88
2022/10/13 05:41:13;;;;;;;12.80;4.93;;;;;;;;;;4928628;29;20064;-88
2022/10/13 05:43:40;;;;;;;10.80;4.80;;;;;;;;;;4927907;29;20489;-87
2022/10/13 05:46:06;;;;;;;7.00;4.28;;;;;;;;;;4928193;29;20138;-88
2022/10/13 05:48:35;;;;;;;12.68;4.30;;;;;;;;;;4941848;29;20060;-88
2022/10/13 05:51:06;;;;;;;7.60;4.20;;;;;;;;;;4942739;29;20569;-88
2022/10/13 05:53:36;;;;;;;6.18;4.10;;;;;;;;;;4927846;29;20071;-88
2022/10/13 05:56:09;;;;;;;6.60;3.50;;;;;;;;;;4928200;29;20067;-88
2022/10/13 05:58:40;;;;;;;7.30;3.65;;;;;;;;;;4943364;29;20047;-88
2022/10/13 06:01:12;;;;;;;5.53;3.28;;;;;;;;;;4910656;29;20063;-88
2022/10/13 06:03:39;;;;;;;7.15;3.30;;;;;;;;;;4927633;29;20044;-88
2022/10/13 06:06:05;;;;;;;7.07;3.33;;;;;;;;;;4928457;29;20039;-88
2022/10/13 06:08:30;;;;;;;7.47;3.33;;;;;;;;;;4942356;29;20083;-88
2022/10/13 06:10:56;;;;;;;10.32;3.40;;;;;;;;;;4940441;29;20106;-88
2022/10/13 06:13:22;;;;;;;6.30;3.38;;;;;;;;;;4941196;29;20020;-89
2022/10/13 06:15:47;;;;;;;7.03;3.45;;;;;;;;;;4926889;29;20126;-88
2022/10/13 06:18:12;;;;;;;6.43;3.45;;;;;;;;;;4925732;29;20032;-88
2022/10/13 06:20:38;;;;;;;8.52;3.80;;;;;;;;;;4924818;29;20044;-87
2022/10/13 06:23:03;;;;;;;10.98;4.32;;;;;;;;;;4926635;29;20032;-88
2022/10/13 06:25:31;;;;;;;8.27;4.20;;;;;;;;;;4927340;29;20489;-89
2022/10/13 06:27:58;;;;;;;9.30;4.45;;;;;;;;;;4940968;29;20139;-88
2022/10/13 06:30:24;;;;;;;10.40;4.40;;;;;;;;;;4923459;29;20179;-88
2022/10/13 06:32:52;;;;;;;13.02;4.13;;;;;;;;;;4925450;29;20032;-89
2022/10/13 06:35:17;;;;;;;8.38;4.05;;;;;;;;;;4925486;29;20032;-88
2022/10/13 06:37:45;;;;;;;7.22;3.88;;;;;;;;;;4925847;29;20040;-89
2022/10/13 06:40:11;;;;;;;6.68;3.67;;;;;;;;;;4924368;29;20040;-89
2022/10/13 06:42:36;;;;;;;10.18;3.78;;;;;;;;;;4923886;29;20036;-88
2022/10/13 06:45:09;;;;;;;7.47;3.88;;;;;;;;;;4938090;29;20573;-89
2022/10/13 06:47:34;;;;;;;10.52;4.30;;;;;;;;;;4922615;29;20087;-88
2022/10/13 06:49:59;;;;;;;10.60;4.60;;;;;;;;;;4935551;29;20032;-88
2022/10/13 06:52:25;;;;;;;12.55;4.35;;;;;;;;;;4922445;29;20091;-88
2022/10/13 06:54:50;;;;;;;9.07;5.80;;;;;;;;;;4937597;29;20077;-89
2022/10/13 06:57:16;;;;;;;20.52;6.80;;;;;;;;;;4924665;29;20485;-89
2022/10/13 06:59:43;;;;;;;10.68;5.82;;;;;;;;;;4922873;29;20068;-88
2022/10/13 07:02:09;;;;;;;7.05;4.90;;;;;;;;;;4925904;29;20036;-88
2022/10/13 07:04:34;;;;;;;6.68;3.90;;;;;;;;;;4939544;29;20032;-88
2022/10/13 07:06:59;;;;;;;7.45;3.83;;;;;;;;;;4925113;29;20044;-88
2022/10/13 07:09:25;;;;;;;10.68;3.85;;;;;;;;;;4925313;29;20052;-88
2022/10/13 07:11:51;;;;;;;8.52;4.95;;;;;;;;;;4923734;29;20067;-87
2022/10/13 07:14:16;;;;;;;9.00;4.97;;;;;;;;;;4927098;29;20401;-88
2022/10/13 07:16:42;;;;;;;9.13;4.50;;;;;;;;;;4926712;29;20036;-88
2022/10/13 07:19:07;;;;;;;8.82;4.13;;;;;;;;;;4923617;29;20036;-88
2022/10/13 07:21:35;;;;;;;10.27;4.32;;;;;;;;;;4923509;29;20054;-89
2022/10/13 07:24:01;;;;;;;11.43;4.40;;;;;;;;;;4923636;29;20119;-87
2022/10/13 07:26:26;;;;;;;5.38;3.40;;;;;;;;;;4938467;29;20528;-88
2022/10/13 07:28:52;;;;;;;19.33;4.45;;;;;;;;;;4922814;29;20040;-88
2022/10/13 07:31:19;;;;;;;8.52;4.20;;;;;;;;;;4921978;29;20044;-87
2022/10/13 07:33:48;;;;;;;10.25;4.00;;;;;;;;;;4923641;29;20040;-87
2022/10/13 07:36:16;;;;;;;12.27;4.90;;;;;;;;;;4923742;29;20517;-87
2022/10/13 07:38:41;;;;;;;9.30;5.30;;;;;;;;;;4922652;29;20032;-87
2022/10/13 07:41:09;;;;;;;10.10;4.68;;;;;;;;;;4921437;29;20040;-87
2022/10/13 07:43:34;;;;;;;8.05;4.43;;;;;;;;;;4923296;29;20044;-88
2022/10/13 07:46:05;;;;;;;5.78;4.05;;;;;;;;;;4924490;29;20095;-88
2022/10/13 07:48:31;;;;;;;7.43;4.40;;;;;;;;;;4924863;29;20063;-88
2022/10/13 07:51:10;;;;;;;9.35;4.60;;;;;;;;;;4937689;29;20491;-88
2022/10/13 07:53:36;;;;;;;9.00;4.50;;;;;;;;;;4922923;29;20424;-88
2022/10/13 07:56:04;;;;;;;13.93;4.47;;;;;;;;;;4936983;29;20036;-88
2022/10/13 07:58:30;;;;;;;10.07;4.25;;;;;;;;;;4936366;29;20036;-88
2022/10/13 08:01:00;;;;;;;7.97;3.90;;;;;;;;;;4937654;29;20051;-89
2022/10/13 08:03:27;;;;;;;8.35;4.10;;;;;;;;;;4922856;29;20044;-88
2022/10/13 08:05:52;;;;;;;8.82;4.63;;;;;;;;;;4921101;29;20060;-88
2022/10/13 08:08:18;;;;;;;8.45;3.88;;;;;;;;;;4921977;29;20039;-88
2022/10/13 08:10:44;;;;;;;8.32;4.00;;;;;;;;;;4923033;29;20044;-88
2022/10/13 08:13:10;;;;;;;9.60;4.00;;;;;;;;;;4922304;29;20047;-88
2022/10/13 08:15:43;;;;;;;6.90;3.83;;;;;;;;;;4922940;29;20130;-88
2022/10/13 08:18:10;;;;;;;6.22;3.70;;;;;;;;;;4922585;29;20028;-88
2022/10/13 08:20:44;;;;;;;5.88;3.75;;;;;;;;;;4922557;29;20036;-88
2022/10/13 08:23:11;;;;;;;7.55;4.20;;;;;;;;;;4921235;29;20481;-88
2022/10/13 08:25:42;;;;;;;7.60;4.00;;;;;;;;;;4922522;29;20127;-89
2022/10/13 08:28:22;;;;;;;8.43;4.00;;;;;;;;;;4920289;29;20083;-88
2022/10/13 08:30:49;;;;;;;9.07;4.30;;;;;;;;;;4917880;29;20557;-89
2022/10/13 08:33:14;;;;;;;8.50;3.97;;;;;;;;;;4931496;29;20498;-89
2022/10/13 08:35:41;;;;;;;7.80;3.90;;;;;;;;;;4916943;29;20032;-90
2022/10/13 08:38:10;;;;;;;8.82;3.70;;;;;;;;;;4926678;29;20069;-90
2022/10/13 08:40:37;;;;;;;8.65;3.60;;;;;;;;;;4913042;29;20044;-90
2022/10/13 08:43:22;;;;;;;7.03;3.60;;;;;;;;;;4949462;29;20031;-90
2022/10/13 08:45:57;;;;;;;7.60;3.50;;;;;;;;;;4917491;29;20043;-89
2022/10/13 08:48:26;;;;;;;6.90;3.63;;;;;;;;;;4949283;29;20067;-90
2022/10/13 08:50:58;;;;;;;8.90;3.70;;;;;;;;;;4933428;29;20051;-91
2022/10/13 08:53:39;;;;;;;5.75;3.88;;;;;;;;;;4928923;29;20036;-89
2022/10/13 08:56:24;;;;;;;4.80;3.38;;;;;;;;;;4937026;29;20043;-90
2022/10/13 08:58:53;;;;;;;8.30;3.40;;;;;;;;;;4949575;29;20397;-89
2022/10/13 09:01:26;;;;;;;9.07;3.20;;;;;;;;;;4933371;29;20039;-90
2022/10/13 09:03:54;;;;;;;8.27;3.45;;;;;;;;;;4934583;29;20039;-90
2022/10/13 09:06:24;;;;;;;5.30;3.25;;;;;;;;;;4934510;29;20040;-90
2022/10/13 09:08:59;;;;;;;6.07;3.10;;;;;;;;;;4949355;29;20034;-90
2022/10/13 09:11:34;;;;;;;7.03;3.40;;;;;;;;;;4932064;29;20095;-90
2022/10/13 09:14:03;;;;;;;9.88;3.38;;;;;;;;;;4925750;29;20035;-91
2022/10/13 09:16:34;;;;;;;12.20;3.90;;;;;;;;;;4933399;29;20070;-91
2022/10/13 09:19:32;;;;;;;7.70;3.78;;;;;;;;;;4933513;29;20055;-91
2022/10/13 09:22:41;;;;;;;6.03;3.53;;;;;;;;;;4949540;29;20417;-91
2022/10/13 09:25:07;;;;;;;7.13;4.00;;;;;;;;;;4932022;29;20059;-90
2022/10/13 09:27:55;;;;;;;6.72;3.78;;;;;;;;;;4933709;29;20035;-91
2022/10/13 09:30:40;;;;;;;8.25;4.05;;;;;;;;;;4949366;29;20035;-90
2022/10/13 09:33:11;;;;;;;10.73;4.28;;;;;;;;;;4933295;29;20039;-90
2022/10/13 09:35:44;;;;;;;6.65;4.10;;;;;;;;;;4948893;29;20493;-89
2022/10/13 09:38:21;;;;;;;9.95;4.28;;;;;;;;;;4917253;29;20064;-92
2022/10/13 09:41:05;;;;;;;8.15;4.22;;;;;;;;;;4934375;29;20055;-91
2022/10/13 09:43:45;;;;;;;9.05;4.03;;;;;;;;;;4934357;29;20119;-91
2022/10/13 09:46:50;;;;;;;7.80;3.42;;;;;;;;;;4947731;29;20032;-91
2022/10/13 09:49:40;;;;;;;9.45;3.72;;;;;;;;;;4935064;29;20055;-89
2022/10/13 09:52:11;;;;;;;8.55;4.03;;;;;;;;;;4934126;29;20047;-90
2022/10/13 09:54:47;;;;;;;8.07;4.03;;;;;;;;;;4951543;29;20067;-88
2022/10/13 09:57:30;;;;;;;9.07;4.00;;;;;;;;;;4952307;29;20040;-89
2022/10/13 10:00:15;;;;;;;8.00;3.92;;;;;;;;;;4936570;29;20043;-90
2022/10/13 10:03:06;;;;;;;7.90;3.70;;;;;;;;;;4937589;29;20087;-89
2022/10/13 10:06:00;;;;;;;10.40;5.10;;;;;;;;;;4951990;29;20404;-89
2022/10/13 10:08:53;;;;;;;10.80;5.60;;;;;;;;;;4937353;29;20095;-89
2022/10/13 10:11:33;;;;;;;12.60;5.63;;;;;;;;;;4937373;29;20036;-89
2022/10/13 10:14:14;;;;;;;9.88;5.18;;;;;;;;;;4944174;29;20040;-88
2022/10/13 10:16:45;;;;;;;9.10;5.68;;;;;;;;;;4918330;29;20072;-89
2022/10/13 10:19:45;;;;;;;10.57;5.18;;;;;;;;;;4918606;29;20036;-89
2022/10/13 10:22:17;;;;;;;12.77;5.18;;;;;;;;;;4920647;29;20426;-89
2022/10/13 10:24:59;;;;;;;15.18;5.40;;;;;;;;;;4902467;29;20113;-89
2022/10/13 10:27:38;;;;;;;11.30;5.18;;;;;;;;;;4918744;29;20040;-90
2022/10/13 10:30:14;;;;;;;9.38;4.95;;;;;;;;;;4926061;29;20039;-88
2022/10/13 10:32:46;;;;;;;11.90;5.00;;;;;;;;;;4940534;29;20043;-89
2022/10/13 10:35:43;;;;;;;8.13;4.72;;;;;;;;;;4953446;29;20036;-91
2022/10/13 10:38:36;;;;;;;9.23;5.55;;;;;;;;;;4937334;29;20031;-91
2022/10/13 10:41:29;;;;;;;7.95;5.03;;;;;;;;;;4952263;29;20047;-89
2022/10/13 10:44:07;;;;;;;11.15;5.22;;;;;;;;;;4937558;29;20036;-89
2022/10/13 10:46:46;;;;;;;10.00;5.70;;;;;;;;;;4952228;29;20047;-89
2022/10/13 10:49:26;;;;;;;11.63;5.60;;;;;;;;;;4935953;29;20107;-89
2022/10/13 10:51:52;;;;;;;9.95;5.38;;;;;;;;;;4936919;29;20035;-89
2022/10/13 10:54:32;;;;;;;11.43;5.30;;;;;;;;;;4936670;29;20046;-89
2022/10/13 10:57:06;;;;;;;9.77;5.40;;;;;;;;;;4936788;29;20067;-90
2022/10/13 11:00:03;;;;;;;12.68;5.78;;;;;;;;;;4938315;29;20111;-90
2022/10/13 11:03:08;;;;;;;12.35;5.72;;;;;;;;;;4937615;29;20493;-92
2022/10/13 11:06:03;;;;;;;8.85;5.15;;;;;;;;;;4918690;29;20129;-92
2022/10/13 11:08:29;;;;;;;9.88;5.70;;;;;;;;;;4935920;29;20039;-92
2022/10/13 11:11:41;;;;;;;10.18;5.30;;;;;;;;;;4951983;29;20155;-92
2022/10/13 11:14:27;;;;;;;9.45;4.95;;;;;;;;;;4934770;29;20036;-90
2022/10/13 11:17:04;;;;;;;10.40;4.95;;;;;;;;;;4935334;29;20127;-87
2022/10/13 11:19:34;;;;;;;13.00;5.50;;;;;;;;;;4934990;29;20277;-89
2022/10/13 11:22:00;;;;;;;8.13;5.00;;;;;;;;;;4936322;29;20039;-89
2022/10/13 11:24:40;;;;;;;9.43;5.30;;;;;;;;;;4950563;29;20481;-90
2022/10/13 11:27:13;;;;;;;11.80;5.00;;;;;;;;;;4934752;29;20043;-90
2022/10/13 11:29:53;;;;;;;10.52;5.15;;;;;;;;;;4935990;29;20039;-90
2022/10/13 11:32:25;;;;;;;7.78;4.88;;;;;;;;;;4934688;29;20472;-90
2022/10/13 11:35:22;;;;;;;11.52;5.40;;;;;;;;;;4935874;29;20071;-89
2022/10/13 11:37:56;;;;;;;8.88;4.93;;;;;;;;;;4930915;29;20056;-89
2022/10/13 11:40:40;;;;;;;15.23;5.13;;;;;;;;;;4934594;29;20637;-89
2022/10/13 11:43:06;;;;;;;11.40;5.20;;;;;;;;;;4934918;29;20416;-88
2022/10/13 11:46:04;;;;;;;10.52;4.93;;;;;;;;;;4934863;29;20056;-89
2022/10/13 11:48:48;;;;;;;11.48;4.85;;;;;;;;;;4921414;29;20047;-89
2022/10/13 11:51:22;;;;;;;10.40;5.25;;;;;;;;;;4950595;29;20138;-89
2022/10/13 11:54:09;;;;;;;11.63;5.07;;;;;;;;;;4934819;29;20172;-88
2022/10/13 11:56:44;;;;;;;7.93;5.07;;;;;;;;;;4950689;29;20047;-89
2022/10/13 11:59:24;;;;;;;9.07;4.85;;;;;;;;;;4950781;29;20031;-88
2022/10/13 12:01:54;;;;;;;10.00;4.95;;;;;;;;;;4935144;29;20081;-88
2022/10/13 12:04:22;;;;;;;8.57;4.80;;;;;;;;;;4936321;29;20123;-88
2022/10/13 12:06:59;;;;;;;14.23;5.28;;;;;;;;;;4937770;29;20036;-88
2022/10/13 12:09:25;;;;;;;13.25;5.35;;;;;;;;;;4937398;29;20405;-89
2022/10/13 12:11:58;;;;;;;15.27;5.60;;;;;;;;;;4937094;29;20119;-89
2022/10/13 12:14:31;;;;;;;10.70;5.22;;;;;;;;;;4953019;29;20035;-88
2022/10/13 12:16:58;;;;;;;8.75;4.88;;;;;;;;;;4937136;29;20060;-88
2022/10/13 12:19:28;;;;;;;9.38;5.20;;;;;;;;;;4939102;29;20047;-89
2022/10/13 12:22:00;;;;;;;15.13;5.45;;;;;;;;;;4938041;29;20075;-88
2022/10/13 12:24:28;;;;;;;7.22;5.10;;;;;;;;;;4954562;29;20039;-89
2022/10/13 12:26:54;;;;;;;11.80;5.10;;;;;;;;;;4937307;29;20142;-89
2022/10/13 12:29:27;;;;;;;13.93;5.35;;;;;;;;;;4936584;29;20032;-88
2022/10/13 12:31:54;;;;;;;8.20;5.03;;;;;;;;;;4936304;29;20028;-88
2022/10/13 12:34:31;;;;;;;14.18;5.40;;;;;;;;;;4953080;29;20046;-88
2022/10/13 12:37:10;;;;;;;11.38;5.22;;;;;;;;;;4934843;29;20094;-88
2022/10/13 12:39:37;;;;;;;12.50;5.32;;;;;;;;;;4950393;29;20067;-88
2022/10/13 12:42:06;;;;;;;12.70;5.40;;;;;;;;;;4935142;29;20028;-88
2022/10/13 12:44:34;;;;;;;11.77;5.45;;;;;;;;;;4934413;29;20066;-88
2022/10/13 12:47:02;;;;;;;15.02;5.47;;;;;;;;;;4953068;29;20039;-88
2022/10/13 12:49:33;;;;;;;17.05;5.00;;;;;;;;;;4950548;29;20545;-88
2022/10/13 12:52:13;;;;;;;17.13;5.32;;;;;;;;;;4935160;29;20036;-88
2022/10/13 12:54:49;;;;;;;15.77;4.93;;;;;;;;;;4950494;29;20482;-88
2022/10/13 12:57:19;;;;;;;17.00;5.10;;;;;;;;;;4937071;29;20028;-89
2022/10/13 12:59:45;;;;;;;10.60;5.28;;;;;;;;;;4935138;29;20055;-88
2022/10/13 13:02:25;;;;;;;8.18;4.70;;;;;;;;;;4951445;29;20585;-89
2022/10/13 13:04:53;;;;;;;11.37;5.03;;;;;;;;;;4938258;29;20142;-89
2022/10/13 13:07:33;;;;;;;12.75;5.30;;;;;;;;;;4939037;29;20508;-89
2022/10/13 13:10:22;;;;;;;13.88;5.10;;;;;;;;;;4935918;29;20481;-88
2022/10/13 13:12:53;;;;;;;12.85;5.13;;;;;;;;;;4923913;29;20043;-89
2022/10/13 13:15:32;;;;;;;13.25;4.70;;;;;;;;;;4935192;29;20126;-89
2022/10/13 13:18:38;;;;;;;9.90;5.22;;;;;;;;;;4934767;29;20083;-90
2022/10/13 13:21:05;;;;;;;10.90;5.38;;;;;;;;;;4935324;29;20090;-89
2022/10/13 13:23:33;;;;;;;11.00;5.47;;;;;;;;;;4930715;29;20032;-90
2022/10/13 13:26:10;;;;;;;11.45;5.50;;;;;;;;;;4914417;29;20408;-90
2022/10/13 13:28:44;;;;;;;9.63;4.88;;;;;;;;;;4918692;29;20047;-90
2022/10/13 13:31:13;;;;;;;24.60;8.73;;;;;;;;;;4919421;29;20040;-90
2022/10/13 13:33:39;;;;;;;14.40;5.20;;;;;;;;;;4919283;29;20079;-90
2022/10/13 13:36:29;;;;;;;11.10;5.03;;;;;;;;;;4918269;29;20040;-89
2022/10/13 13:38:54;;;;;;;18.90;6.10;;;;;;;;;;4920695;29;20054;-89
2022/10/13 13:41:20;;;;;;;32.50;9.80;;;;;;;;;;4935389;29;20115;-88
2022/10/13 13:43:47;;;;;;;20.00;8.35;;;;;;;;;;4903092;29;20051;-89
2022/10/13 13:46:21;;;;;;;11.32;5.78;;;;;;;;;;4919798;29;20409;-89
2022/10/13 13:48:47;;;;;;;76.05;20.02;;;;;;;;;;4918261;29;20036;-89
2022/10/13 13:51:13;;;;;;;11.82;5.50;;;;;;;;;;4920214;29;20119;-88
2022/10/13 13:53:39;;;;;;;13.50;5.35;;;;;;;;;;4921025;29;20504;-88
2022/10/13 13:56:04;;;;;;;28.13;7.95;;;;;;;;;;4935274;29;20044;-89
2022/10/13 13:58:30;;;;;;;50.10;17.35;;;;;;;;;;4919129;29;20040;-88
2022/10/13 14:00:57;;;;;;;25.65;6.95;;;;;;;;;;4917610;29;20076;-90
2022/10/13 14:03:22;;;;;;;19.33;7.47;;;;;;;;;;4917837;29;20039;-89
2022/10/13 14:05:48;;;;;;;9.23;4.82;;;;;;;;;;4921392;29;20040;-89
2022/10/13 14:08:17;;;;;;;17.30;5.70;;;;;;;;;;4917343;29;20024;-88
2022/10/13 14:10:43;;;;;;;12.65;4.97;;;;;;;;;;4918671;29;20099;-89
2022/10/13 14:13:08;;;;;;;9.75;4.93;;;;;;;;;;4918615;29;20413;-89
2022/10/13 14:15:34;;;;;;;9.40;4.63;;;;;;;;;;4918519;29;20042;-88
2022/10/13 14:17:59;;;;;;;7.22;4.50;;;;;;;;;;4918333;29;20051;-89
2022/10/13 14:20:25;;;;;;;33.33;9.73;;;;;;;;;;4925608;29;20032;-89
2022/10/13 14:22:50;;;;;;;23.67;6.90;;;;;;;;;;4925200;29;20044;-88
2022/10/13 14:25:16;;;;;;;16.73;5.80;;;;;;;;;;4923614;29;20040;-89
2022/10/13 14:27:41;;;;;;;13.23;4.50;;;;;;;;;;4939862;29;20067;-89
2022/10/13 14:30:08;;;;;;;13.32;5.18;;;;;;;;;;4921546;29;20141;-88
2022/10/13 14:32:35;;;;;;;11.27;4.55;;;;;;;;;;4921709;29;20028;-89
2022/10/13 14:35:06;;;;;;;11.60;4.80;;;;;;;;;;4919272;29;20042;-89
2022/10/13 14:37:32;;;;;;;11.32;4.40;;;;;;;;;;4919127;29;20063;-89
2022/10/13 14:40:00;;;;;;;10.18;4.50;;;;;;;;;;4917774;29;20518;-89
2022/10/13 14:42:25;;;;;;;10.98;4.47;;;;;;;;;;4918318;29;20536;-88
2022/10/13 14:45:01;;;;;;;10.95;4.50;;;;;;;;;;4918881;29;20405;-89
2022/10/13 14:47:30;;;;;;;8.00;4.65;;;;;;;;;;4917233;29;20048;-88
2022/10/13 14:49:56;;;;;;;13.70;4.88;;;;;;;;;;4918083;29;20051;-88
2022/10/13 14:52:21;;;;;;;10.07;4.28;;;;;;;;;;4916759;29;20043;-88
2022/10/13 14:54:47;;;;;;;28.40;5.65;;;;;;;;;;4917932;29;20091;-87
2022/10/13 14:57:15;;;;;;;24.40;5.10;;;;;;;;;;4921844;29;20114;-88
2022/10/13 14:59:41;;;;;;;25.48;4.90;;;;;;;;;;4921078;29;20439;-87
2022/10/13 15:02:11;;;;;;;14.02;4.75;;;;;;;;;;4935395;29;20047;-88